sensor_id;sensor_type;location;lat;lon;timestamp;temperature;humidity
10572;DHT22;5334;48.928;12.704;2022-12-26T00:01:46;7.00;99.90
10572;DHT22;5334;48.928;12.704;2022-12-26T00:04:12;7.00;99.90
10572;DHT22;5334;48.928;12.704;2022-12-26T00:06:38;7.00;99.90
10572;DHT22;5334;48.928;12.704;2022-12-26T00:09:05;7.00;99.90
10572;DHT22;5334;48.928;12.704;2022-12-26T00:11:31;7.00;99.90
10572;DHT22;5334;48.928;12.704;2022-12-26T00:14:04;6.90;99.90
10572;DHT22;5334;48.928;12.704;2022-12-26T00:16:30;6.80;99.90
10572;DHT22;5334;48.928;12.704;2022-12-26T00:18:56;6.80;99.90
10572;DHT22;5334;48.928;12.704;2022-12-26T00:21:22;6.80;99.90
10572;DHT22;5334;48.928;12.704;2022-12-26T00:23:52;6.80;99.90
10572;DHT22;5334;48.928;12.704;2022-12-26T00:26:21;6.80;99.90
10572;DHT22;5334;48.928;12.704;2022-12-26T00:28:47;6.70;99.90
10572;DHT22;5334;48.928;12.704;2022-12-26T00:31:16;6.70;99.90
10572;DHT22;5334;48.928;12.704;2022-12-26T00:33:42;6.70;99.90
10572;DHT22;5334;48.928;12.704;2022-12-26T00:36:10;6.70;99.90
10572;DHT22;5334;48.928;12.704;2022-12-26T00:38:38;6.70;99.90
10572;DHT22;5334;48.928;12.704;2022-12-26T00:41:05;6.70;99.90
10572;DHT22;5334;48.928;12.704;2022-12-26T00:43:31;6.60;99.90
10572;DHT22;5334;48.928;12.704;2022-12-26T00:45:56;6.60;99.90
10572;DHT22;5334;48.928;12.704;2022-12-26T00:48:22;6.60;99.90
10572;DHT22;5334;48.928;12.704;2022-12-26T00:50:48;6.60;99.90
10572;DHT22;5334;48.928;12.704;2022-12-26T00:53:14;6.50;99.90
10572;DHT22;5334;48.928;12.704;2022-12-26T00:55:40;6.60;99.90
10572;DHT22;5334;48.928;12.704;2022-12-26T00:58:05;6.60;99.90
10572;DHT22;5334;48.928;12.704;2022-12-26T01:00:31;6.60;99.90
10572;DHT22;5334;48.928;12.704;2022-12-26T01:02:57;6.60;99.90
10572;DHT22;5334;48.928;12.704;2022-12-26T01:05:23;6.70;99.90
10572;DHT22;5334;48.928;12.704;2022-12-26T01:07:49;6.70;99.90
10572;DHT22;5334;48.928;12.704;2022-12-26T01:10:14;6.70;99.90
10572;DHT22;5334;48.928;12.704;2022-12-26T01:12:40;6.70;99.90
10572;DHT22;5334;48.928;12.704;2022-12-26T01:15:06;6.70;99.90
10572;DHT22;5334;48.928;12.704;2022-12-26T01:17:33;6.60;99.90
10572;DHT22;5334;48.928;12.704;2022-12-26T01:19:59;6.60;99.90
10572;DHT22;5334;48.928;12.704;2022-12-26T01:22:26;6.60;99.90
10572;DHT22;5334;48.928;12.704;2022-12-26T01:24:56;6.60;99.90
10572;DHT22;5334;48.928;12.704;2022-12-26T01:27:23;6.70;99.90
10572;DHT22;5334;48.928;12.704;2022-12-26T01:29:49;6.70;99.90
10572;DHT22;5334;48.928;12.704;2022-12-26T01:32:15;6.80;99.90
10572;DHT22;5334;48.928;12.704;2022-12-26T01:34:40;6.80;99.90
10572;DHT22;5334;48.928;12.704;2022-12-26T01:37:06;6.80;99.90
10572;DHT22;5334;48.928;12.704;2022-12-26T01:39:32;6.90;99.90
10572;DHT22;5334;48.928;12.704;2022-12-26T01:41:58;6.90;99.90
10572;DHT22;5334;48.928;12.704;2022-12-26T01:47:54;7.00;99.90
10572;DHT22;5334;48.928;12.704;2022-12-26T01:51:12;7.00;99.90
10572;DHT22;5334;48.928;12.704;2022-12-26T01:56:04;7.00;99.90
10572;DHT22;5334;48.928;12.704;2022-12-26T01:58:35;7.10;99.90
10572;DHT22;5334;48.928;12.704;2022-12-26T02:01:02;7.10;99.90
10572;DHT22;5334;48.928;12.704;2022-12-26T02:03:29;7.10;99.90
10572;DHT22;5334;48.928;12.704;2022-12-26T02:06:14;7.10;99.90
10572;DHT22;5334;48.928;12.704;2022-12-26T02:08:41;7.10;99.90
10572;DHT22;5334;48.928;12.704;2022-12-26T02:11:17;7.10;99.90
10572;DHT22;5334;48.928;12.704;2022-12-26T02:13:44;7.00;99.90
10572;DHT22;5334;48.928;12.704;2022-12-26T02:16:12;7.00;99.90
10572;DHT22;5334;48.928;12.704;2022-12-26T02:18:38;7.00;99.90
10572;DHT22;5334;48.928;12.704;2022-12-26T02:21:20;7.00;99.90
10572;DHT22;5334;48.928;12.704;2022-12-26T02:35:13;7.20;99.90
10572;DHT22;5334;48.928;12.704;2022-12-26T02:44:11;7.10;99.90
10572;DHT22;5334;48.928;12.704;2022-12-26T02:47:18;7.00;99.90
10572;DHT22;5334;48.928;12.704;2022-12-26T02:56:18;6.90;99.90
10572;DHT22;5334;48.928;12.704;2022-12-26T03:02:36;6.60;99.90
10572;DHT22;5334;48.928;12.704;2022-12-26T03:05:46;6.90;99.90
10572;DHT22;5334;48.928;12.704;2022-12-26T03:08:47;6.80;99.90
10572;DHT22;5334;48.928;12.704;2022-12-26T03:11:35;6.80;99.90
10572;DHT22;5334;48.928;12.704;2022-12-26T03:14:29;6.90;99.90
10572;DHT22;5334;48.928;12.704;2022-12-26T03:17:02;6.90;99.90
10572;DHT22;5334;48.928;12.704;2022-12-26T03:19:52;6.90;99.90
10572;DHT22;5334;48.928;12.704;2022-12-26T03:22:31;7.00;99.90
10572;DHT22;5334;48.928;12.704;2022-12-26T03:25:02;7.00;99.90
10572;DHT22;5334;48.928;12.704;2022-12-26T03:27:47;7.00;99.90
10572;DHT22;5334;48.928;12.704;2022-12-26T03:30:13;7.80;99.90
10572;DHT22;5334;48.928;12.704;2022-12-26T03:32:57;7.00;99.90
10572;DHT22;5334;48.928;12.704;2022-12-26T03:35:24;7.00;99.90
10572;DHT22;5334;48.928;12.704;2022-12-26T03:37:55;7.00;99.90
10572;DHT22;5334;48.928;12.704;2022-12-26T03:40:29;6.90;99.90
10572;DHT22;5334;48.928;12.704;2022-12-26T03:43:26;6.80;99.90
10572;DHT22;5334;48.928;12.704;2022-12-26T03:55:31;6.70;99.90
10572;DHT22;5334;48.928;12.704;2022-12-26T03:58:21;6.70;99.90
10572;DHT22;5334;48.928;12.704;2022-12-26T04:01:11;6.70;99.90
10572;DHT22;5334;48.928;12.704;2022-12-26T04:03:58;6.70;99.90
10572;DHT22;5334;48.928;12.704;2022-12-26T04:06:55;6.70;99.90
10572;DHT22;5334;48.928;12.704;2022-12-26T04:10:12;6.70;99.90
10572;DHT22;5334;48.928;12.704;2022-12-26T04:12:58;6.70;99.90
10572;DHT22;5334;48.928;12.704;2022-12-26T04:15:53;6.70;99.90
10572;DHT22;5334;48.928;12.704;2022-12-26T04:25:17;6.70;99.90
10572;DHT22;5334;48.928;12.704;2022-12-26T04:28:03;6.70;99.90
10572;DHT22;5334;48.928;12.704;2022-12-26T04:31:42;6.70;99.90
10572;DHT22;5334;48.928;12.704;2022-12-26T04:34:01;6.70;99.90
10572;DHT22;5334;48.928;12.704;2022-12-26T04:36:53;6.80;99.90
10572;DHT22;5334;48.928;12.704;2022-12-26T04:39:43;6.80;99.90
10572;DHT22;5334;48.928;12.704;2022-12-26T04:42:31;6.80;99.90
10572;DHT22;5334;48.928;12.704;2022-12-26T04:45:16;6.80;99.90
10572;DHT22;5334;48.928;12.704;2022-12-26T04:47:43;6.80;99.90
10572;DHT22;5334;48.928;12.704;2022-12-26T04:50:29;6.80;99.90
10572;DHT22;5334;48.928;12.704;2022-12-26T04:52:54;6.80;99.90
10572;DHT22;5334;48.928;12.704;2022-12-26T04:55:28;6.80;99.90
10572;DHT22;5334;48.928;12.704;2022-12-26T04:57:54;6.70;99.90
10572;DHT22;5334;48.928;12.704;2022-12-26T05:00:21;6.80;99.90
10572;DHT22;5334;48.928;12.704;2022-12-26T05:02:52;6.70;99.90
10572;DHT22;5334;48.928;12.704;2022-12-26T05:05:40;6.80;99.90
10572;DHT22;5334;48.928;12.704;2022-12-26T05:08:45;6.80;99.90
10572;DHT22;5334;48.928;12.704;2022-12-26T05:11:32;6.70;99.90
10572;DHT22;5334;48.928;12.704;2022-12-26T05:13:58;6.60;99.90
10572;DHT22;5334;48.928;12.704;2022-12-26T05:16:26;6.50;99.90
10572;DHT22;5334;48.928;12.704;2022-12-26T05:19:12;6.50;99.90
10572;DHT22;5334;48.928;12.704;2022-12-26T05:21:57;6.50;99.90
10572;DHT22;5334;48.928;12.704;2022-12-26T05:24:43;6.50;99.90
10572;DHT22;5334;48.928;12.704;2022-12-26T05:27:34;6.50;99.90
10572;DHT22;5334;48.928;12.704;2022-12-26T05:30:19;6.40;99.90
10572;DHT22;5334;48.928;12.704;2022-12-26T05:32:45;6.40;99.90
10572;DHT22;5334;48.928;12.704;2022-12-26T05:35:29;6.40;99.90
10572;DHT22;5334;48.928;12.704;2022-12-26T05:37:56;6.50;99.90
10572;DHT22;5334;48.928;12.704;2022-12-26T05:40:21;6.50;99.90
10572;DHT22;5334;48.928;12.704;2022-12-26T05:42:47;6.50;99.90
10572;DHT22;5334;48.928;12.704;2022-12-26T05:45:13;6.50;99.90
10572;DHT22;5334;48.928;12.704;2022-12-26T05:47:38;6.50;99.90
10572;DHT22;5334;48.928;12.704;2022-12-26T05:50:04;6.50;99.90
10572;DHT22;5334;48.928;12.704;2022-12-26T05:52:30;6.50;99.90
10572;DHT22;5334;48.928;12.704;2022-12-26T05:54:56;6.50;99.90
10572;DHT22;5334;48.928;12.704;2022-12-26T05:57:21;6.50;99.90
10572;DHT22;5334;48.928;12.704;2022-12-26T05:59:47;6.50;99.90
10572;DHT22;5334;48.928;12.704;2022-12-26T06:04:39;6.50;99.90
10572;DHT22;5334;48.928;12.704;2022-12-26T06:07:04;6.50;99.90
10572;DHT22;5334;48.928;12.704;2022-12-26T06:09:30;6.60;99.90
10572;DHT22;5334;48.928;12.704;2022-12-26T06:11:56;6.60;99.90
10572;DHT22;5334;48.928;12.704;2022-12-26T06:14:21;6.60;99.90
10572;DHT22;5334;48.928;12.704;2022-12-26T06:16:47;6.70;99.90
10572;DHT22;5334;48.928;12.704;2022-12-26T06:19:13;6.70;99.90
10572;DHT22;5334;48.928;12.704;2022-12-26T06:21:38;6.60;99.90
10572;DHT22;5334;48.928;12.704;2022-12-26T06:24:04;6.60;99.90
10572;DHT22;5334;48.928;12.704;2022-12-26T06:26:30;6.60;99.90
10572;DHT22;5334;48.928;12.704;2022-12-26T06:28:55;6.60;99.90
10572;DHT22;5334;48.928;12.704;2022-12-26T06:31:23;6.50;99.90
10572;DHT22;5334;48.928;12.704;2022-12-26T06:33:50;6.50;99.90
10572;DHT22;5334;48.928;12.704;2022-12-26T06:36:19;6.40;99.90
10572;DHT22;5334;48.928;12.704;2022-12-26T06:38:45;6.40;99.90
10572;DHT22;5334;48.928;12.704;2022-12-26T06:41:15;6.40;99.90
10572;DHT22;5334;48.928;12.704;2022-12-26T06:43:41;6.40;99.90
10572;DHT22;5334;48.928;12.704;2022-12-26T06:46:11;6.40;99.90
10572;DHT22;5334;48.928;12.704;2022-12-26T06:48:37;6.30;99.90
10572;DHT22;5334;48.928;12.704;2022-12-26T06:53:34;6.20;99.90
10572;DHT22;5334;48.928;12.704;2022-12-26T06:56:12;6.20;99.90
10572;DHT22;5334;48.928;12.704;2022-12-26T06:58:38;6.20;99.90
10572;DHT22;5334;48.928;12.704;2022-12-26T07:01:06;6.10;99.90
10572;DHT22;5334;48.928;12.704;2022-12-26T07:03:32;6.20;99.90
10572;DHT22;5334;48.928;12.704;2022-12-26T07:06:24;6.20;99.90
10572;DHT22;5334;48.928;12.704;2022-12-26T07:08:51;6.20;99.90
10572;DHT22;5334;48.928;12.704;2022-12-26T07:11:21;6.20;99.90
10572;DHT22;5334;48.928;12.704;2022-12-26T07:13:47;6.20;99.90
10572;DHT22;5334;48.928;12.704;2022-12-26T07:16:13;6.10;99.90
10572;DHT22;5334;48.928;12.704;2022-12-26T07:18:40;6.10;99.90
10572;DHT22;5334;48.928;12.704;2022-12-26T07:21:11;6.10;99.90
10572;DHT22;5334;48.928;12.704;2022-12-26T07:23:38;6.10;99.90
10572;DHT22;5334;48.928;12.704;2022-12-26T07:26:05;6.20;99.90
10572;DHT22;5334;48.928;12.704;2022-12-26T07:28:31;6.20;99.90
10572;DHT22;5334;48.928;12.704;2022-12-26T07:30:57;6.30;99.90
10572;DHT22;5334;48.928;12.704;2022-12-26T07:33:25;6.40;99.90
10572;DHT22;5334;48.928;12.704;2022-12-26T07:35:51;6.40;99.90
10572;DHT22;5334;48.928;12.704;2022-12-26T07:38:17;6.50;99.90
10572;DHT22;5334;48.928;12.704;2022-12-26T07:40:42;6.50;99.90
10572;DHT22;5334;48.928;12.704;2022-12-26T07:43:08;6.70;99.90
10572;DHT22;5334;48.928;12.704;2022-12-26T07:45:34;7.00;99.90
10572;DHT22;5334;48.928;12.704;2022-12-26T07:48:00;7.10;99.90
10572;DHT22;5334;48.928;12.704;2022-12-26T07:50:26;6.90;99.90
10572;DHT22;5334;48.928;12.704;2022-12-26T07:52:53;6.70;99.90
10572;DHT22;5334;48.928;12.704;2022-12-26T07:55:19;6.60;99.90
10572;DHT22;5334;48.928;12.704;2022-12-26T07:57:49;6.50;99.90
10572;DHT22;5334;48.928;12.704;2022-12-26T08:00:16;6.50;99.90
10572;DHT22;5334;48.928;12.704;2022-12-26T08:02:44;6.40;99.90
10572;DHT22;5334;48.928;12.704;2022-12-26T08:05:09;6.40;99.90
10572;DHT22;5334;48.928;12.704;2022-12-26T08:07:36;6.40;99.90
10572;DHT22;5334;48.928;12.704;2022-12-26T08:10:02;6.40;99.90
10572;DHT22;5334;48.928;12.704;2022-12-26T08:12:28;6.50;99.90
10572;DHT22;5334;48.928;12.704;2022-12-26T08:14:53;6.60;99.90
10572;DHT22;5334;48.928;12.704;2022-12-26T08:17:19;6.70;99.90
10572;DHT22;5334;48.928;12.704;2022-12-26T08:19:45;6.80;99.90
10572;DHT22;5334;48.928;12.704;2022-12-26T08:22:10;7.00;99.90
10572;DHT22;5334;48.928;12.704;2022-12-26T08:24:36;7.00;99.90
10572;DHT22;5334;48.928;12.704;2022-12-26T08:27:03;7.10;99.90
10572;DHT22;5334;48.928;12.704;2022-12-26T08:29:29;7.20;99.90
10572;DHT22;5334;48.928;12.704;2022-12-26T08:31:55;7.30;99.90
10572;DHT22;5334;48.928;12.704;2022-12-26T08:34:21;7.30;99.90
10572;DHT22;5334;48.928;12.704;2022-12-26T08:36:51;7.30;99.90
10572;DHT22;5334;48.928;12.704;2022-12-26T08:39:17;7.40;99.90
10572;DHT22;5334;48.928;12.704;2022-12-26T08:41:43;7.40;99.90
10572;DHT22;5334;48.928;12.704;2022-12-26T08:44:09;7.50;99.90
10572;DHT22;5334;48.928;12.704;2022-12-26T08:46:37;7.50;99.90
10572;DHT22;5334;48.928;12.704;2022-12-26T08:49:03;7.60;99.90
10572;DHT22;5334;48.928;12.704;2022-12-26T08:51:29;7.60;99.90
10572;DHT22;5334;48.928;12.704;2022-12-26T08:53:54;7.70;99.90
10572;DHT22;5334;48.928;12.704;2022-12-26T08:56:23;7.70;99.90
10572;DHT22;5334;48.928;12.704;2022-12-26T08:58:49;7.70;99.90
10572;DHT22;5334;48.928;12.704;2022-12-26T09:01:26;7.80;99.90
10572;DHT22;5334;48.928;12.704;2022-12-26T09:03:54;7.80;99.90
10572;DHT22;5334;48.928;12.704;2022-12-26T09:06:20;7.80;99.90
10572;DHT22;5334;48.928;12.704;2022-12-26T09:08:46;7.80;99.90
10572;DHT22;5334;48.928;12.704;2022-12-26T09:11:15;7.80;99.90
10572;DHT22;5334;48.928;12.704;2022-12-26T09:13:41;7.90;99.90
10572;DHT22;5334;48.928;12.704;2022-12-26T09:16:19;7.90;99.90
10572;DHT22;5334;48.928;12.704;2022-12-26T09:18:47;7.90;99.90
10572;DHT22;5334;48.928;12.704;2022-12-26T09:21:14;8.00;99.90
10572;DHT22;5334;48.928;12.704;2022-12-26T09:23:41;8.00;99.90
10572;DHT22;5334;48.928;12.704;2022-12-26T09:26:11;8.00;99.90
10572;DHT22;5334;48.928;12.704;2022-12-26T09:28:38;8.00;99.90
10572;DHT22;5334;48.928;12.704;2022-12-26T09:31:06;8.00;99.90
10572;DHT22;5334;48.928;12.704;2022-12-26T09:33:33;8.00;99.90
10572;DHT22;5334;48.928;12.704;2022-12-26T09:36:11;7.90;99.90
10572;DHT22;5334;48.928;12.704;2022-12-26T09:38:37;7.90;99.90
10572;DHT22;5334;48.928;12.704;2022-12-26T09:49:10;7.90;99.90
10572;DHT22;5334;48.928;12.704;2022-12-26T09:51:37;7.90;99.90
10572;DHT22;5334;48.928;12.704;2022-12-26T09:54:06;7.90;99.90
10572;DHT22;5334;48.928;12.704;2022-12-26T09:56:36;7.90;99.90
10572;DHT22;5334;48.928;12.704;2022-12-26T09:59:20;7.90;99.90
10572;DHT22;5334;48.928;12.704;2022-12-26T10:01:48;7.90;99.90
10572;DHT22;5334;48.928;12.704;2022-12-26T10:04:22;8.00;99.90
10572;DHT22;5334;48.928;12.704;2022-12-26T10:09:49;8.20;99.90
10572;DHT22;5334;48.928;12.704;2022-12-26T10:23:33;8.30;99.90
10572;DHT22;5334;48.928;12.704;2022-12-26T10:26:16;8.40;99.90
10572;DHT22;5334;48.928;12.704;2022-12-26T10:28:45;8.40;99.90
10572;DHT22;5334;48.928;12.704;2022-12-26T10:31:24;8.50;99.90
10572;DHT22;5334;48.928;12.704;2022-12-26T10:34:21;8.60;99.90
10572;DHT22;5334;48.928;12.704;2022-12-26T10:36:58;8.60;99.90
10572;DHT22;5334;48.928;12.704;2022-12-26T10:39:41;8.60;99.90
10572;DHT22;5334;48.928;12.704;2022-12-26T10:44:54;8.50;99.90
10572;DHT22;5334;48.928;12.704;2022-12-26T10:47:40;8.40;99.90
10572;DHT22;5334;48.928;12.704;2022-12-26T10:50:20;8.40;99.90
10572;DHT22;5334;48.928;12.704;2022-12-26T10:52:47;8.30;99.90
10572;DHT22;5334;48.928;12.704;2022-12-26T10:55:16;8.30;99.90
10572;DHT22;5334;48.928;12.704;2022-12-26T10:57:45;8.20;99.90
10572;DHT22;5334;48.928;12.704;2022-12-26T11:00:19;8.20;99.90
10572;DHT22;5334;48.928;12.704;2022-12-26T11:02:45;8.20;99.90
10572;DHT22;5334;48.928;12.704;2022-12-26T11:05:25;8.20;99.90
10572;DHT22;5334;48.928;12.704;2022-12-26T11:07:54;8.20;99.90
10572;DHT22;5334;48.928;12.704;2022-12-26T11:10:25;8.10;99.90
10572;DHT22;5334;48.928;12.704;2022-12-26T11:12:54;8.10;99.90
10572;DHT22;5334;48.928;12.704;2022-12-26T11:18:30;8.10;99.90
10572;DHT22;5334;48.928;12.704;2022-12-26T11:20:51;8.10;99.90
10572;DHT22;5334;48.928;12.704;2022-12-26T11:23:27;8.00;99.90
10572;DHT22;5334;48.928;12.704;2022-12-26T11:25:58;7.90;99.90
10572;DHT22;5334;48.928;12.704;2022-12-26T11:28:36;7.90;99.90
10572;DHT22;5334;48.928;12.704;2022-12-26T11:31:06;7.90;99.90
10572;DHT22;5334;48.928;12.704;2022-12-26T11:33:44;7.80;99.90
10572;DHT22;5334;48.928;12.704;2022-12-26T11:36:21;7.90;99.90
10572;DHT22;5334;48.928;12.704;2022-12-26T11:44:12;7.90;99.90
10572;DHT22;5334;48.928;12.704;2022-12-26T11:47:00;7.90;99.90
10572;DHT22;5334;48.928;12.704;2022-12-26T11:49:33;8.00;99.90
10572;DHT22;5334;48.928;12.704;2022-12-26T11:54:48;8.00;99.90
10572;DHT22;5334;48.928;12.704;2022-12-26T11:57:26;7.90;99.90
10572;DHT22;5334;48.928;12.704;2022-12-26T11:59:52;8.00;99.90
10572;DHT22;5334;48.928;12.704;2022-12-26T12:02:29;8.00;99.90
10572;DHT22;5334;48.928;12.704;2022-12-26T12:05:14;8.00;99.90
10572;DHT22;5334;48.928;12.704;2022-12-26T12:13:27;7.90;99.90
10572;DHT22;5334;48.928;12.704;2022-12-26T12:33:25;8.00;99.90
10572;DHT22;5334;48.928;12.704;2022-12-26T12:36:10;8.00;99.90
10572;DHT22;5334;48.928;12.704;2022-12-26T12:39:19;7.90;99.90
10572;DHT22;5334;48.928;12.704;2022-12-26T12:47:01;7.90;99.90
10572;DHT22;5334;48.928;12.704;2022-12-26T13:00:31;8.00;99.90
10572;DHT22;5334;48.928;12.704;2022-12-26T13:03:06;7.90;99.90
10572;DHT22;5334;48.928;12.704;2022-12-26T13:05:58;8.00;99.90
10572;DHT22;5334;48.928;12.704;2022-12-26T13:08:30;8.00;99.90
10572;DHT22;5334;48.928;12.704;2022-12-26T13:11:21;8.00;99.90
10572;DHT22;5334;48.928;12.704;2022-12-26T13:13:56;8.10;99.90
10572;DHT22;5334;48.928;12.704;2022-12-26T13:16:30;8.10;99.90
10572;DHT22;5334;48.928;12.704;2022-12-26T13:19:03;8.00;99.90
10572;DHT22;5334;48.928;12.704;2022-12-26T13:21:36;8.00;99.90
10572;DHT22;5334;48.928;12.704;2022-12-26T13:24:13;7.90;99.90
10572;DHT22;5334;48.928;12.704;2022-12-26T13:32:00;7.90;99.90
10572;DHT22;5334;48.928;12.704;2022-12-26T13:34:27;7.80;99.90
10572;DHT22;5334;48.928;12.704;2022-12-26T13:36:57;7.80;99.90
10572;DHT22;5334;48.928;12.704;2022-12-26T13:42:00;7.90;99.90
10572;DHT22;5334;48.928;12.704;2022-12-26T13:44:44;7.80;99.90
10572;DHT22;5334;48.928;12.704;2022-12-26T13:47:31;7.80;99.90
10572;DHT22;5334;48.928;12.704;2022-12-26T13:49:57;7.80;99.90
10572;DHT22;5334;48.928;12.704;2022-12-26T13:52:33;7.80;99.90
10572;DHT22;5334;48.928;12.704;2022-12-26T13:57:34;7.90;99.90
10572;DHT22;5334;48.928;12.704;2022-12-26T14:05:53;8.00;99.90
10572;DHT22;5334;48.928;12.704;2022-12-26T14:08:36;8.10;99.90
10572;DHT22;5334;48.928;12.704;2022-12-26T14:17:08;8.30;99.90
10572;DHT22;5334;48.928;12.704;2022-12-26T14:19:44;8.30;99.90
10572;DHT22;5334;48.928;12.704;2022-12-26T14:22:20;8.20;99.90
10572;DHT22;5334;48.928;12.704;2022-12-26T14:25:25;8.20;99.90
10572;DHT22;5334;48.928;12.704;2022-12-26T14:33:54;8.10;99.90
10572;DHT22;5334;48.928;12.704;2022-12-26T14:36:33;8.20;99.90
10572;DHT22;5334;48.928;12.704;2022-12-26T14:42:15;8.20;99.90
10572;DHT22;5334;48.928;12.704;2022-12-26T14:44:58;8.20;99.90
10572;DHT22;5334;48.928;12.704;2022-12-26T14:47:46;8.20;99.90
10572;DHT22;5334;48.928;12.704;2022-12-26T14:58:38;8.20;99.90
10572;DHT22;5334;48.928;12.704;2022-12-26T15:23:29;8.10;99.90
10572;DHT22;5334;48.928;12.704;2022-12-26T15:26:23;8.10;99.90
10572;DHT22;5334;48.928;12.704;2022-12-26T15:31:32;8.00;99.90
10572;DHT22;5334;48.928;12.704;2022-12-26T15:34:18;8.00;99.90
10572;DHT22;5334;48.928;12.704;2022-12-26T15:37:13;8.00;99.90
10572;DHT22;5334;48.928;12.704;2022-12-26T15:45:43;7.90;99.90
10572;DHT22;5334;48.928;12.704;2022-12-26T15:51:05;7.90;99.90
10572;DHT22;5334;48.928;12.704;2022-12-26T16:01:57;7.90;99.90
10572;DHT22;5334;48.928;12.704;2022-12-26T16:04:36;7.90;99.90
10572;DHT22;5334;48.928;12.704;2022-12-26T16:07:40;7.90;99.90
10572;DHT22;5334;48.928;12.704;2022-12-26T16:10:30;7.90;99.90
10572;DHT22;5334;48.928;12.704;2022-12-26T16:15:51;8.00;99.90
10572;DHT22;5334;48.928;12.704;2022-12-26T16:18:24;8.00;99.90
10572;DHT22;5334;48.928;12.704;2022-12-26T16:20:53;8.00;99.90
10572;DHT22;5334;48.928;12.704;2022-12-26T16:23:40;8.00;99.90
10572;DHT22;5334;48.928;12.704;2022-12-26T16:26:06;8.00;99.90
10572;DHT22;5334;48.928;12.704;2022-12-26T16:28:41;8.00;99.90
10572;DHT22;5334;48.928;12.704;2022-12-26T16:31:08;8.10;99.90
10572;DHT22;5334;48.928;12.704;2022-12-26T16:33:38;8.10;99.90
10572;DHT22;5334;48.928;12.704;2022-12-26T16:36:10;8.10;99.90
10572;DHT22;5334;48.928;12.704;2022-12-26T16:38:37;8.10;99.90
10572;DHT22;5334;48.928;12.704;2022-12-26T16:41:21;8.10;99.90
10572;DHT22;5334;48.928;12.704;2022-12-26T16:43:49;8.10;99.90
10572;DHT22;5334;48.928;12.704;2022-12-26T16:46:16;8.10;99.90
10572;DHT22;5334;48.928;12.704;2022-12-26T16:48:44;8.10;99.90
10572;DHT22;5334;48.928;12.704;2022-12-26T16:51:38;8.10;99.90
10572;DHT22;5334;48.928;12.704;2022-12-26T16:56:50;8.20;99.90
10572;DHT22;5334;48.928;12.704;2022-12-26T16:59:23;8.20;99.90
10572;DHT22;5334;48.928;12.704;2022-12-26T17:01:51;8.20;99.90
10572;DHT22;5334;48.928;12.704;2022-12-26T17:04:23;8.30;99.90
10572;DHT22;5334;48.928;12.704;2022-12-26T17:06:55;8.30;99.90
10572;DHT22;5334;48.928;12.704;2022-12-26T17:09:23;8.30;99.90
10572;DHT22;5334;48.928;12.704;2022-12-26T17:11:58;8.30;99.90
10572;DHT22;5334;48.928;12.704;2022-12-26T17:14:30;8.30;99.90
10572;DHT22;5334;48.928;12.704;2022-12-26T17:17:02;8.30;99.90
10572;DHT22;5334;48.928;12.704;2022-12-26T17:19:32;8.30;99.90
10572;DHT22;5334;48.928;12.704;2022-12-26T17:24:40;8.30;99.90
10572;DHT22;5334;48.928;12.704;2022-12-26T17:27:23;8.30;99.90
10572;DHT22;5334;48.928;12.704;2022-12-26T17:29:57;8.30;99.90
10572;DHT22;5334;48.928;12.704;2022-12-26T17:32:30;8.30;99.90
10572;DHT22;5334;48.928;12.704;2022-12-26T17:35:12;8.30;99.90
10572;DHT22;5334;48.928;12.704;2022-12-26T17:37:38;8.20;99.90
10572;DHT22;5334;48.928;12.704;2022-12-26T17:42:50;8.20;99.90
10572;DHT22;5334;48.928;12.704;2022-12-26T17:45:19;8.20;99.90
10572;DHT22;5334;48.928;12.704;2022-12-26T17:47:45;8.30;99.90
10572;DHT22;5334;48.928;12.704;2022-12-26T17:50:11;8.30;99.90
10572;DHT22;5334;48.928;12.704;2022-12-26T17:52:37;8.30;99.90
10572;DHT22;5334;48.928;12.704;2022-12-26T17:55:05;8.30;99.90
10572;DHT22;5334;48.928;12.704;2022-12-26T17:57:37;8.30;99.90
10572;DHT22;5334;48.928;12.704;2022-12-26T18:00:12;8.30;99.90
10572;DHT22;5334;48.928;12.704;2022-12-26T18:02:38;8.30;99.90
10572;DHT22;5334;48.928;12.704;2022-12-26T18:05:04;8.30;99.90
10572;DHT22;5334;48.928;12.704;2022-12-26T18:07:30;8.30;99.90
10572;DHT22;5334;48.928;12.704;2022-12-26T18:09:55;8.30;99.90
10572;DHT22;5334;48.928;12.704;2022-12-26T18:12:21;8.30;99.90
10572;DHT22;5334;48.928;12.704;2022-12-26T18:14:47;8.30;99.90
10572;DHT22;5334;48.928;12.704;2022-12-26T18:17:14;8.30;99.90
10572;DHT22;5334;48.928;12.704;2022-12-26T18:19:44;8.30;99.90
10572;DHT22;5334;48.928;12.704;2022-12-26T18:22:14;8.30;99.90
10572;DHT22;5334;48.928;12.704;2022-12-26T18:24:40;8.30;99.90
10572;DHT22;5334;48.928;12.704;2022-12-26T18:27:08;8.30;99.90
10572;DHT22;5334;48.928;12.704;2022-12-26T18:29:36;8.30;99.90
10572;DHT22;5334;48.928;12.704;2022-12-26T18:32:11;8.40;99.90
10572;DHT22;5334;48.928;12.704;2022-12-26T18:34:43;8.40;99.90
10572;DHT22;5334;48.928;12.704;2022-12-26T18:37:10;8.30;99.90
10572;DHT22;5334;48.928;12.704;2022-12-26T18:39:36;8.30;99.90
10572;DHT22;5334;48.928;12.704;2022-12-26T18:42:02;8.30;99.90
10572;DHT22;5334;48.928;12.704;2022-12-26T18:44:27;8.30;99.90
10572;DHT22;5334;48.928;12.704;2022-12-26T18:46:53;8.30;99.90
10572;DHT22;5334;48.928;12.704;2022-12-26T18:49:19;8.30;99.90
10572;DHT22;5334;48.928;12.704;2022-12-26T18:51:44;8.30;99.90
10572;DHT22;5334;48.928;12.704;2022-12-26T18:54:10;8.30;99.90
10572;DHT22;5334;48.928;12.704;2022-12-26T18:56:35;8.30;99.90
10572;DHT22;5334;48.928;12.704;2022-12-26T18:59:01;8.40;99.90
10572;DHT22;5334;48.928;12.704;2022-12-26T19:01:27;8.40;99.90
10572;DHT22;5334;48.928;12.704;2022-12-26T19:03:53;8.40;99.90
10572;DHT22;5334;48.928;12.704;2022-12-26T19:06:22;8.40;99.90
10572;DHT22;5334;48.928;12.704;2022-12-26T19:08:48;8.40;99.90
10572;DHT22;5334;48.928;12.704;2022-12-26T19:11:14;8.40;99.90
10572;DHT22;5334;48.928;12.704;2022-12-26T19:13:40;8.40;99.90
10572;DHT22;5334;48.928;12.704;2022-12-26T19:16:06;8.50;99.90
10572;DHT22;5334;48.928;12.704;2022-12-26T19:18:32;8.50;99.90
10572;DHT22;5334;48.928;12.704;2022-12-26T19:20:59;8.50;99.90
10572;DHT22;5334;48.928;12.704;2022-12-26T19:23:24;8.50;99.90
10572;DHT22;5334;48.928;12.704;2022-12-26T19:25:50;8.50;99.90
10572;DHT22;5334;48.928;12.704;2022-12-26T19:28:16;8.40;99.90
10572;DHT22;5334;48.928;12.704;2022-12-26T19:30:41;8.40;99.90
10572;DHT22;5334;48.928;12.704;2022-12-26T19:33:07;8.40;99.90
10572;DHT22;5334;48.928;12.704;2022-12-26T19:35:32;8.40;99.90
10572;DHT22;5334;48.928;12.704;2022-12-26T19:37:58;8.40;99.90
10572;DHT22;5334;48.928;12.704;2022-12-26T19:40:24;8.40;99.90
10572;DHT22;5334;48.928;12.704;2022-12-26T19:42:50;8.40;99.90
10572;DHT22;5334;48.928;12.704;2022-12-26T19:45:15;8.40;99.90
10572;DHT22;5334;48.928;12.704;2022-12-26T19:47:41;8.40;99.90
10572;DHT22;5334;48.928;12.704;2022-12-26T19:50:07;8.50;99.90
10572;DHT22;5334;48.928;12.704;2022-12-26T19:52:35;8.40;99.90
10572;DHT22;5334;48.928;12.704;2022-12-26T19:55:06;8.40;99.90
10572;DHT22;5334;48.928;12.704;2022-12-26T19:57:32;8.40;99.90
10572;DHT22;5334;48.928;12.704;2022-12-26T19:59:58;8.50;99.90